Latest Coastal Weather Observations for Coolangatta

IDQ60701

Issued at 3:02 pm EST Sunday 28 August 2016 (issued every 10 minutes, with the page automatically refreshed every 10 minutes)

About coastal observations | Map of coastal stations | Coastal observations for QLD | Marine services | Other Formats
Station Details ID: 040717 Name: COOLANGATTA Lat: -28.17 Lon: 153.51 Height: 4.0 m
Data from the previous 72 hours. | See also: Recent months at Coolangatta
Date/Time
EST
Temp
°C
Wind Pressure Rain since
9am
mm
Weather Cloud Vis
km
Sea
Height
m
Swell
Dir  Spd
kts
Gust
kts
hPa Trend Height
m
Period
s
Dir
28/03:00pm 20.2 E 9 9 1021.0 - 0.0 - Mostly clear 35 - - - -
28/02:30pm 20.9 E 10 14 1020.9 - 0.0 - Partly cloudy 10 - - - -
28/02:00pm 21.4 ESE 10 13 1021.0 - 0.0 - - 10 - - - -
28/01:30pm 21.4 ESE 12 16 1021.0 - 0.0 - - 10 - - - -
28/01:00pm 21.3 ESE 12 16 1021.3 - 0.0 - Partly cloudy 10 - - - -
28/12:30pm 21.4 ESE 12 16 1021.8 - 0.0 - Partly cloudy 10 - - - -
28/12:00pm 20.1 SE 10 14 1022.3 - 0.0 - Cloudy 10 - - - -
28/11:30am 21.5 S 7 12 1022.9 - 0.0 - Partly cloudy 10 - - - -
28/11:00am 20.8 SSW 8 12 1023.1 - 0.0 - Partly cloudy 10 - - - -
28/10:30am 20.4 SSW 10 15 1023.3 - 0.0 - - 10 - - - -
28/10:00am 19.9 SSW 10 14 1023.4 - 0.0 - - 10 - - - -
28/09:30am 19.3 SSW 10 14 1023.5 - 0.0 - - 10 - - - -
28/09:00am 18.1 SSW 11 16 1023.6 - 0.2 - - 10 - - - -
28/08:30am 17.6 SSW 11 17 1023.5 - 0.2 - - 10 - - - -
28/08:00am 17.2 SSW 11 16 1023.3 - 0.2 - - 10 - - - -
28/07:30am 16.2 SSW 11 15 1022.9 - 0.2 - - 10 - - - -
28/07:00am 15.1 SSW 8 12 1022.6 - 0.2 - - 10 - - - -
28/06:30am 14.3 SW 8 13 1022.2 - 0.2 - - 10 - - - -
28/06:00am 13.2 SW 8 11 1021.9 - 0.2 - - 10 - - - -
28/05:30am 12.5 WSW 5 7 1021.7 - 0.2 - - 10 - - - -
28/05:00am 12.2 WSW 5 6 1021.4 - 0.2 - - 10 - - - -
28/04:30am 13.1 SW 6 8 1021.2 - 0.2 - - 10 - - - -
28/04:00am 12.4 SW 6 7 1021.0 - 0.2 - - 10 - - - -
28/03:30am 12.6 SW 6 10 1020.9 - 0.2 - - 10 - - - -
28/03:00am 12.2 SSW 6 9 1020.8 - 0.2 - - 10 - - - -
28/02:30am 9.5 SW 3 4 1021.1 - 0.2 - - 10 - - - -
28/02:00am 11.3 WSW 4 5 1021.5 - 0.2 - - 10 - - - -
28/01:59am 11.4 WSW 4 5 1021.5 - 0.2 - - 10 - - - -
28/01:30am 11.0 WSW 5 6 1021.5 - 0.2 - - 6 - - - -
28/01:28am 9.6 WSW 5 6 1021.4 - 0.2 - - 6 - - - -
28/01:00am 10.3 WSW 3 4 1021.1 - 0.2 - - 10 - - - -
28/12:30am 12.3 WSW 4 6 1021.3 - 0.2 - - 9 - - - -
28/12:00am 13.5 SSW 5 8 1021.5 - 0.2 - - 10 - - - -
 
Date/Time
EST
Temp
°C
Wind Pressure Rain since
9am
mm
Weather Cloud Vis
km
Sea
Height
m
Swell
Dir  Spd
kts
Gust
kts
hPa Trend Height
m
Period
s
Dir
27/11:30pm 13.3 SW 6 8 1021.7 - 0.2 - Partly cloudy 10 - - - -
27/11:00pm 12.1 WSW 5 6 1021.4 - 0.2 - Partly cloudy 7 - - - -
27/10:30pm 10.0 WSW 4 5 1021.5 - 0.2 - - 10 - - - -
27/10:00pm 11.2 W 5 6 1021.4 - 0.2 - - 8 - - - -
27/09:30pm 12.9 WSW 5 6 1021.5 - 0.2 - Partly cloudy 10 - - - -
27/09:00pm 12.6 SW 4 6 1021.4 - 0.2 - - 10 - - - -
27/08:30pm 12.9 SW 5 6 1021.3 - 0.2 - - 10 - - - -
27/08:00pm 13.5 WSW 5 7 1021.0 - 0.2 - - 10 - - - -
27/07:30pm 14.8 SSW 5 6 1021.0 - 0.2 - - 10 - - - -
27/07:00pm 15.4 SSW 7 10 1020.7 - 0.2 - - 10 - - - -
27/06:30pm 15.7 S 9 11 1020.3 - 0.2 - - 10 - - - -
27/06:00pm 16.2 S 10 14 1019.7 - 0.2 - - 10 - - - -
27/05:30pm 16.5 S 6 9 1019.1 - 0.2 - Partly cloudy 10 - - - -
27/05:00pm 18.4 SSW 9 16 1018.7 - 0.2 - Partly cloudy 10 - - - -
27/04:30pm 19.0 S 10 15 1018.2 - 0.2 - - 10 - - - -
27/04:00pm 19.7 S 10 15 1017.9 - 0.2 - Partly cloudy 10 - - - -
27/03:30pm 20.3 SW 9 14 1017.7 - 0.2 - Partly cloudy 10 - - - -
27/03:00pm 20.1 SSW 10 13 1017.8 - 0.2 - - 10 - - - -
27/02:30pm 19.9 SSW 11 16 1017.8 - 0.2 - - 10 - - - -
27/02:00pm 20.3 SSW 10 17 1017.9 - 0.2 - - 10 - - - -
27/01:30pm 20.1 SW 9 14 1018.0 - 0.2 - - 10 - - - -
27/01:00pm 19.6 SSW 10 17 1018.1 - 0.2 - - 10 - - - -
27/12:30pm 20.2 SW 11 18 1018.3 - 0.2 - - 10 - - - -
27/12:00pm 19.6 SSW 10 15 1018.6 - 0.2 - - 10 - - - -
27/11:30am 18.8 SW 9 13 1018.9 - 0.2 - - 10 - - - -
27/11:00am 18.2 SSW 8 13 1019.4 - 0.2 - - 10 - - - -
27/10:30am 17.4 SSW 12 17 1019.5 - 0.2 - - 10 - - - -
27/10:00am 16.9 SW 10 15 1019.7 - 0.0 - - 10 - - - -
27/09:30am 16.3 S 13 17 1019.7 - 0.0 - - 10 - - - -
27/09:00am 15.8 SSW 12 17 1019.7 - 2.4 - - 10 - - - -
27/08:30am 15.5 SSW 10 16 1019.6 - 2.4 - - 10 - - - -
27/08:00am 15.1 S 8 11 1019.4 - 2.4 - - 10 - - - -
27/07:30am 14.1 S 8 11 1019.1 - 2.4 - - 10 - - - -
27/07:00am 13.3 SW 9 14 1018.6 - 2.4 - - 10 - - - -
27/06:30am 12.6 SSW 9 14 1018.5 - 2.4 - - 10 - - - -
27/06:00am 12.8 SSW 10 16 1018.4 - 2.4 - - 10 - - - -
27/05:30am 12.6 SSW 11 18 1018.1 - 2.4 - - 10 - - - -
27/05:00am 12.7 SSW 11 18 1017.8 - 2.4 - - 10 - - - -
27/04:30am 13.2 SW 11 19 1017.4 - 2.4 - - 10 - - - -
27/04:00am 13.2 SSW 10 15 1017.2 - 2.4 - - 10 - - - -
27/03:30am 12.9 SSW 8 13 1017.1 - 2.4 - Partly cloudy 10 - - - -
27/03:00am 13.2 SW 9 13 1017.2 - 2.4 - Cloudy 10 - - - -
27/02:30am 13.0 SW 9 14 1017.1 - 2.4 - Cloudy 10 - - - -
27/02:00am 13.1 SSW 10 17 1017.0 - 2.4 - Cloudy 10 - - - -
27/01:30am 13.1 SW 10 14 1017.0 - 2.4 - Cloudy 10 - - - -
27/01:00am 13.0 SW 8 13 1017.0 - 2.4 - Cloudy 10 - - - -
27/12:30am 12.8 SW 5 7 1017.2 - 2.4 - Partly cloudy 10 - - - -
27/12:00am 12.6 SSW 6 8 1017.5 - 2.4 Rain Cloudy 10 - - - -
 
Date/Time
EST
Temp
°C
Wind Pressure Rain since
9am
mm
Weather Cloud Vis
km
Sea
Height
m
Swell
Dir  Spd
kts
Gust
kts
hPa Trend Height
m
Period
s
Dir
26/11:30pm 12.8 SSW 5 7 1017.6 - 2.4 - Partly cloudy 10 - - - -
26/11:00pm 12.9 S 6 8 1017.4 - 1.8 - Partly cloudy 10 - - - -
26/10:58pm 13.0 S 6 8 1017.3 - 1.8 - Partly cloudy 10 - - - -
26/10:41pm 13.1 SSW 9 13 1017.2 - 1.2 - Cloudy 6 - - - -
26/10:30pm 14.8 SW 7 13 1017.0 - 0.0 - Partly cloudy 10 - - - -
26/10:00pm 14.8 SW 7 11 1016.7 - 0.0 - Partly cloudy 10 - - - -
26/09:30pm 14.9 SW 8 12 1016.7 - 0.0 - Cloudy 10 - - - -
26/09:00pm 15.1 SSW 8 11 1016.5 - 0.0 - Cloudy 10 - - - -
26/08:30pm 15.2 SSW 7 9 1016.3 - 0.0 - Partly cloudy 10 - - - -
26/08:00pm 15.4 SW 8 12 1016.4 - 0.0 - Cloudy 10 - - - -
26/07:30pm 15.2 SSW 9 11 1016.4 - 0.0 - Partly cloudy 10 - - - -
26/07:00pm 15.1 SSW 8 11 1016.2 - 0.0 - - 10 - - - -
26/06:30pm 15.1 SW 7 9 1016.1 - 0.0 - Partly cloudy 10 - - - -
26/06:00pm 15.3 SSW 6 8 1015.9 - 0.0 - Partly cloudy 10 - - - -
26/05:30pm 15.5 S 6 9 1015.5 - 0.0 - Partly cloudy 10 - - - -
26/05:00pm 16.5 S 8 13 1015.2 - 0.0 - Partly cloudy 10 - - - -
26/04:30pm 18.0 SSE 9 12 1014.8 - 0.0 - Partly cloudy 10 - - - -
26/04:00pm 18.4 SE 7 11 1014.6 - 0.0 - Partly cloudy 10 - - - -
26/03:30pm 18.6 SE 7 11 1014.4 - 0.0 - - 10 - - - -
26/03:00pm 19.1 SE 8 12 1014.4 - 0.0 - - 10 - - - -
26/02:30pm 18.9 ESE 11 17 1014.6 - 0.0 - - 10 - - - -
26/02:00pm 19.0 ESE 11 15 1014.6 - 0.0 - - 10 - - - -
26/01:30pm 20.2 ESE 10 14 1014.4 - 0.0 - - 10 - - - -
26/01:00pm 18.9 ESE 11 15 1014.6 - 0.0 - - 10 - - - -
26/12:30pm 19.2 ESE 10 13 1014.8 - 0.0 - - 10 - - - -
26/12:00pm 19.7 ESE 9 12 1015.3 - 0.0 - - 10 - - - -
26/11:30am 19.1 E 5 9 1015.6 - 0.0 - - 10 - - - -
26/11:00am 18.1 NNE 7 9 1016.0 - 0.0 - - 10 - - - -
26/10:30am 17.8 NNE 7 10 1016.3 - 0.0 - - 10 - - - -
26/10:00am 17.6 NNE 5 7 1016.8 - 0.0 - - 10 - - - -
26/09:30am 17.9 SE 3 7 1017.0 - 0.0 - - 10 - - - -
26/09:00am 16.5 WSW 3 5 1017.0 - 0.0 - - 10 - - - -
26/08:30am 15.4 WSW 4 5 1017.4 - 0.0 - - 10 - - - -
26/08:00am 14.0 WSW 4 6 1017.2 - 0.0 - - 10 - - - -
26/07:30am 12.6 SW 1 4 1016.9 - 0.0 - - 10 - - - -
26/07:00am 9.5 CALM 0 0 1016.7 - 0.0 - - 10 - - - -
26/06:30am 7.0 SW 1 3 1016.4 - 0.0 - - 10 - - - -
26/06:00am 6.6 CALM 0 0 1016.2 - 0.0 - - 10 - - - -
26/05:30am 7.3 S 1 4 1015.9 - 0.0 - - 10 - - - -
26/05:00am 6.7 SW 2 3 1015.2 - 0.0 - - 10 - - - -
26/04:30am 7.7 WSW 1 4 1014.9 - 0.0 - - 10 - - - -
26/04:00am 7.8 SSW 3 5 1014.6 - 0.0 - - 10 - - - -
26/03:30am 7.7 WNW 2 4 1014.4 - 0.0 - - 10 - - - -
26/03:00am 7.4 N 4 5 1014.4 - 0.0 - - 10 - - - -
26/02:30am 8.4 SW 1 4 1014.2 - 0.0 - - 10 - - - -
26/02:00am 9.5 SSW 3 7 1014.3 - 0.0 - - 10 - - - -
26/01:30am 7.9 CALM 0 0 1014.3 - 0.0 - - 10 - - - -
26/01:00am 7.6 SW 3 5 1014.2 - 0.0 - - 10 - - - -
26/12:30am 8.0 CALM 0 0 1014.5 - 0.0 - - 10 - - - -
26/12:00am 8.6 CALM 0 0 1014.8 - 0.0 - - 10 - - - -
 
Date/Time
EST
Temp
°C
Wind Pressure Rain since
9am
mm
Weather Cloud Vis
km
Sea
Height
m
Swell
Dir  Spd
kts
Gust
kts
hPa Trend Height
m
Period
s
Dir
25/11:30pm 8.6 CALM 0 0 1014.8 - 0.0 - - 10 - - - -
25/11:00pm 8.4 WNW 4 5 1014.7 - 0.0 - Partly cloudy 10 - - - -
25/10:30pm 9.3 W 5 6 1015.0 - 0.0 - Partly cloudy 10 - - - -
25/10:00pm 10.9 WSW 5 6 1014.8 - 0.0 - - 10 - - - -
25/09:30pm 11.5 W 5 6 1014.7 - 0.0 - - 10 - - - -
25/09:00pm 11.9 W 6 7 1014.6 - 0.0 - - 10 - - - -
25/08:30pm 11.5 W 5 7 1014.5 - 0.0 - - 10 - - - -
25/08:00pm 12.5 WSW 6 7 1014.1 - 0.0 - - 10 - - - -
25/07:30pm 12.9 WSW 6 7 1013.9 - 0.0 - - 10 - - - -
25/07:00pm 13.4 WSW 5 7 1013.5 - 0.0 - - 10 - - - -
25/06:30pm 14.1 WSW 5 6 1012.9 - 0.0 - - 10 - - - -
25/06:00pm 14.3 W 4 6 1012.3 - 0.0 - - 10 - - - -
25/05:30pm 15.2 W 5 7 1011.8 - 0.0 - - 10 - - - -
25/05:00pm 18.3 SSW 6 11 1011.2 - 0.0 - - 10 - - - -
25/04:30pm 19.4 SSW 8 11 1010.8 - 0.0 - - 10 - - - -
25/04:00pm 20.1 SSW 7 10 1010.3 - 0.0 - - 10 - - - -
25/03:30pm 20.2 SSW 7 11 1009.9 - 0.0 - - 10 - - - -

Other Formats:

Comma delimited format used in spreadsheet applications
http://www.bom.gov.au/fwo/IDQ60701/IDQ60701.94592.axf

JavaScript Object Notation format (JSON) in row-major order
http://www.bom.gov.au/fwo/IDQ60701/IDQ60701.94592.json